sensor_id;sensor_type;location;lat;lon;timestamp;P1;durP1;ratioP1;P2;durP2;ratioP2
2866;SDS011;1441;48.886;8.728;2023-02-13T00:00:32;11.70;;;6.40;;
2866;SDS011;1441;48.886;8.728;2023-02-13T00:02:59;11.20;;;7.20;;
2866;SDS011;1441;48.886;8.728;2023-02-13T00:05:24;12.33;;;8.07;;
2866;SDS011;1441;48.886;8.728;2023-02-13T00:07:50;13.30;;;8.60;;
2866;SDS011;1441;48.886;8.728;2023-02-13T00:10:15;10.20;;;7.10;;
2866;SDS011;1441;48.886;8.728;2023-02-13T00:12:41;11.60;;;7.00;;
2866;SDS011;1441;48.886;8.728;2023-02-13T00:15:07;12.20;;;6.97;;
2866;SDS011;1441;48.886;8.728;2023-02-13T00:17:33;11.93;;;7.23;;
2866;SDS011;1441;48.886;8.728;2023-02-13T00:19:59;13.13;;;8.03;;
2866;SDS011;1441;48.886;8.728;2023-02-13T00:22:25;10.50;;;6.93;;
2866;SDS011;1441;48.886;8.728;2023-02-13T00:24:50;16.00;;;8.50;;
2866;SDS011;1441;48.886;8.728;2023-02-13T00:27:16;10.90;;;8.00;;
2866;SDS011;1441;48.886;8.728;2023-02-13T00:29:41;11.30;;;7.77;;
2866;SDS011;1441;48.886;8.728;2023-02-13T00:32:07;12.90;;;7.57;;
2866;SDS011;1441;48.886;8.728;2023-02-13T00:34:33;10.23;;;8.07;;
2866;SDS011;1441;48.886;8.728;2023-02-13T00:36:58;14.37;;;8.90;;
2866;SDS011;1441;48.886;8.728;2023-02-13T00:39:24;16.73;;;8.57;;
2866;SDS011;1441;48.886;8.728;2023-02-13T00:41:49;16.00;;;8.63;;
2866;SDS011;1441;48.886;8.728;2023-02-13T00:44:15;13.13;;;8.50;;
2866;SDS011;1441;48.886;8.728;2023-02-13T00:46:41;11.43;;;7.57;;
2866;SDS011;1441;48.886;8.728;2023-02-13T00:49:06;14.13;;;8.43;;
2866;SDS011;1441;48.886;8.728;2023-02-13T00:51:32;13.17;;;8.00;;
2866;SDS011;1441;48.886;8.728;2023-02-13T00:53:57;12.30;;;8.03;;
2866;SDS011;1441;48.886;8.728;2023-02-13T00:56:23;13.47;;;8.40;;
2866;SDS011;1441;48.886;8.728;2023-02-13T00:58:49;13.77;;;8.93;;
2866;SDS011;1441;48.886;8.728;2023-02-13T01:01:14;12.70;;;8.47;;
2866;SDS011;1441;48.886;8.728;2023-02-13T01:03:40;11.33;;;7.70;;
2866;SDS011;1441;48.886;8.728;2023-02-13T01:06:06;12.37;;;7.83;;
2866;SDS011;1441;48.886;8.728;2023-02-13T01:08:32;14.97;;;9.50;;
2866;SDS011;1441;48.886;8.728;2023-02-13T01:10:58;12.33;;;8.53;;
2866;SDS011;1441;48.886;8.728;2023-02-13T01:13:24;15.00;;;9.00;;
2866;SDS011;1441;48.886;8.728;2023-02-13T01:15:50;15.33;;;9.73;;
2866;SDS011;1441;48.886;8.728;2023-02-13T01:18:17;15.80;;;8.17;;
2866;SDS011;1441;48.886;8.728;2023-02-13T01:20:44;14.00;;;8.10;;
2866;SDS011;1441;48.886;8.728;2023-02-13T01:23:11;13.40;;;8.40;;
2866;SDS011;1441;48.886;8.728;2023-02-13T01:25:40;13.00;;;8.73;;
2866;SDS011;1441;48.886;8.728;2023-02-13T01:28:06;14.80;;;9.73;;
2866;SDS011;1441;48.886;8.728;2023-02-13T01:30:32;16.93;;;9.70;;
2866;SDS011;1441;48.886;8.728;2023-02-13T01:32:58;15.77;;;8.80;;
2866;SDS011;1441;48.886;8.728;2023-02-13T01:35:23;19.27;;;9.77;;
2866;SDS011;1441;48.886;8.728;2023-02-13T01:37:49;17.60;;;9.07;;
2866;SDS011;1441;48.886;8.728;2023-02-13T01:40:14;20.67;;;10.67;;
2866;SDS011;1441;48.886;8.728;2023-02-13T01:42:41;17.50;;;11.00;;
2866;SDS011;1441;48.886;8.728;2023-02-13T01:48:10;17.97;;;10.57;;
2866;SDS011;1441;48.886;8.728;2023-02-13T01:53:13;19.53;;;10.90;;
2866;SDS011;1441;48.886;8.728;2023-02-13T01:56:01;17.93;;;11.07;;
2866;SDS011;1441;48.886;8.728;2023-02-13T01:58:34;18.00;;;10.23;;
2866;SDS011;1441;48.886;8.728;2023-02-13T02:01:02;20.87;;;10.80;;
2866;SDS011;1441;48.886;8.728;2023-02-13T02:03:35;19.60;;;11.10;;
2866;SDS011;1441;48.886;8.728;2023-02-13T02:06:01;21.67;;;10.80;;
2866;SDS011;1441;48.886;8.728;2023-02-13T02:08:29;16.57;;;10.40;;
2866;SDS011;1441;48.886;8.728;2023-02-13T02:10:55;20.70;;;10.80;;
2866;SDS011;1441;48.886;8.728;2023-02-13T02:13:25;20.60;;;10.40;;
2866;SDS011;1441;48.886;8.728;2023-02-13T02:15:51;19.07;;;10.90;;
2866;SDS011;1441;48.886;8.728;2023-02-13T02:18:18;19.37;;;10.50;;
2866;SDS011;1441;48.886;8.728;2023-02-13T02:35:09;18.90;;;10.70;;
2866;SDS011;1441;48.886;8.728;2023-02-13T02:41:03;23.20;;;11.90;;
2866;SDS011;1441;48.886;8.728;2023-02-13T02:43:54;19.87;;;11.03;;
2866;SDS011;1441;48.886;8.728;2023-02-13T02:49:38;25.57;;;12.60;;
2866;SDS011;1441;48.886;8.728;2023-02-13T02:52:30;22.00;;;12.27;;
2866;SDS011;1441;48.886;8.728;2023-02-13T02:58:20;23.03;;;11.70;;
2866;SDS011;1441;48.886;8.728;2023-02-13T03:01:09;19.80;;;11.23;;
2866;SDS011;1441;48.886;8.728;2023-02-13T03:04:00;22.67;;;11.50;;
2866;SDS011;1441;48.886;8.728;2023-02-13T03:06:47;21.50;;;10.17;;
2866;SDS011;1441;48.886;8.728;2023-02-13T03:09:25;22.67;;;12.00;;
2866;SDS011;1441;48.886;8.728;2023-02-13T03:12:13;23.80;;;12.87;;
2866;SDS011;1441;48.886;8.728;2023-02-13T03:15:02;22.63;;;12.57;;
2866;SDS011;1441;48.886;8.728;2023-02-13T03:17:29;22.50;;;11.93;;
2866;SDS011;1441;48.886;8.728;2023-02-13T03:20:22;18.67;;;10.70;;
2866;SDS011;1441;48.886;8.728;2023-02-13T03:23:14;23.07;;;11.50;;
2866;SDS011;1441;48.886;8.728;2023-02-13T03:26:47;21.07;;;10.63;;
2866;SDS011;1441;48.886;8.728;2023-02-13T03:31:33;17.10;;;9.50;;
2866;SDS011;1441;48.886;8.728;2023-02-13T03:40:05;15.83;;;8.97;;
2866;SDS011;1441;48.886;8.728;2023-02-13T03:42:36;18.43;;;8.50;;
2866;SDS011;1441;48.886;8.728;2023-02-13T03:45:10;17.77;;;9.83;;
2866;SDS011;1441;48.886;8.728;2023-02-13T03:47:59;16.53;;;8.80;;
2866;SDS011;1441;48.886;8.728;2023-02-13T03:50:33;15.70;;;8.33;;
2866;SDS011;1441;48.886;8.728;2023-02-13T03:53:05;19.60;;;9.83;;
2866;SDS011;1441;48.886;8.728;2023-02-13T03:55:37;16.37;;;9.40;;
2866;SDS011;1441;48.886;8.728;2023-02-13T03:58:27;17.23;;;10.00;;
2866;SDS011;1441;48.886;8.728;2023-02-13T04:01:16;17.97;;;9.93;;
2866;SDS011;1441;48.886;8.728;2023-02-13T04:03:51;19.97;;;10.40;;
2866;SDS011;1441;48.886;8.728;2023-02-13T04:06:45;18.43;;;9.83;;
2866;SDS011;1441;48.886;8.728;2023-02-13T04:09:16;19.90;;;11.03;;
2866;SDS011;1441;48.886;8.728;2023-02-13T04:11:46;18.70;;;10.30;;
2866;SDS011;1441;48.886;8.728;2023-02-13T04:17:28;22.53;;;12.00;;
2866;SDS011;1441;48.886;8.728;2023-02-13T04:19:57;18.20;;;10.90;;
2866;SDS011;1441;48.886;8.728;2023-02-13T04:22:23;17.87;;;10.80;;
2866;SDS011;1441;48.886;8.728;2023-02-13T04:24:50;20.73;;;11.37;;
2866;SDS011;1441;48.886;8.728;2023-02-13T04:27:15;20.03;;;11.23;;
2866;SDS011;1441;48.886;8.728;2023-02-13T04:29:42;19.33;;;10.67;;
2866;SDS011;1441;48.886;8.728;2023-02-13T04:32:11;23.60;;;12.03;;
2866;SDS011;1441;48.886;8.728;2023-02-13T04:34:38;23.13;;;11.60;;
2866;SDS011;1441;48.886;8.728;2023-02-13T04:37:03;22.70;;;11.47;;
2866;SDS011;1441;48.886;8.728;2023-02-13T04:39:29;19.47;;;11.87;;
2866;SDS011;1441;48.886;8.728;2023-02-13T04:41:54;21.67;;;11.97;;
2866;SDS011;1441;48.886;8.728;2023-02-13T04:44:20;18.97;;;11.97;;
2866;SDS011;1441;48.886;8.728;2023-02-13T04:46:45;17.20;;;10.40;;
2866;SDS011;1441;48.886;8.728;2023-02-13T04:49:11;17.57;;;10.63;;
2866;SDS011;1441;48.886;8.728;2023-02-13T04:51:37;19.77;;;10.23;;
2866;SDS011;1441;48.886;8.728;2023-02-13T04:54:02;23.43;;;10.80;;
2866;SDS011;1441;48.886;8.728;2023-02-13T04:56:28;19.23;;;10.80;;
2866;SDS011;1441;48.886;8.728;2023-02-13T04:58:54;18.57;;;9.87;;
2866;SDS011;1441;48.886;8.728;2023-02-13T05:01:20;19.53;;;9.70;;
2866;SDS011;1441;48.886;8.728;2023-02-13T05:03:46;15.13;;;9.23;;
2866;SDS011;1441;48.886;8.728;2023-02-13T05:06:11;17.33;;;9.40;;
2866;SDS011;1441;48.886;8.728;2023-02-13T05:08:37;12.53;;;7.80;;
2866;SDS011;1441;48.886;8.728;2023-02-13T05:11:03;14.67;;;8.67;;
2866;SDS011;1441;48.886;8.728;2023-02-13T05:13:29;14.40;;;7.37;;
2866;SDS011;1441;48.886;8.728;2023-02-13T05:15:54;13.53;;;6.50;;
2866;SDS011;1441;48.886;8.728;2023-02-13T05:18:20;9.80;;;6.60;;
2866;SDS011;1441;48.886;8.728;2023-02-13T05:20:45;12.07;;;7.20;;
2866;SDS011;1441;48.886;8.728;2023-02-13T05:23:31;15.30;;;7.20;;
2866;SDS011;1441;48.886;8.728;2023-02-13T05:25:57;10.77;;;6.60;;
2866;SDS011;1441;48.886;8.728;2023-02-13T05:28:22;9.23;;;6.30;;
2866;SDS011;1441;48.886;8.728;2023-02-13T05:31:07;13.20;;;7.13;;
2866;SDS011;1441;48.886;8.728;2023-02-13T05:33:32;11.40;;;6.23;;
2866;SDS011;1441;48.886;8.728;2023-02-13T05:35:58;11.60;;;6.60;;
2866;SDS011;1441;48.886;8.728;2023-02-13T05:38:23;12.10;;;6.27;;
2866;SDS011;1441;48.886;8.728;2023-02-13T05:40:49;10.13;;;6.10;;
2866;SDS011;1441;48.886;8.728;2023-02-13T05:43:14;10.40;;;5.77;;
2866;SDS011;1441;48.886;8.728;2023-02-13T05:45:40;11.93;;;7.07;;
2866;SDS011;1441;48.886;8.728;2023-02-13T05:48:06;11.77;;;6.10;;
2866;SDS011;1441;48.886;8.728;2023-02-13T05:50:31;10.83;;;6.47;;
2866;SDS011;1441;48.886;8.728;2023-02-13T05:52:57;12.40;;;6.30;;
2866;SDS011;1441;48.886;8.728;2023-02-13T05:55:22;7.23;;;5.13;;
2866;SDS011;1441;48.886;8.728;2023-02-13T05:57:48;11.53;;;5.97;;
2866;SDS011;1441;48.886;8.728;2023-02-13T06:00:14;11.80;;;6.43;;
2866;SDS011;1441;48.886;8.728;2023-02-13T06:02:40;5.83;;;5.20;;
2866;SDS011;1441;48.886;8.728;2023-02-13T06:05:05;12.43;;;7.17;;
2866;SDS011;1441;48.886;8.728;2023-02-13T06:07:32;10.93;;;5.60;;
2866;SDS011;1441;48.886;8.728;2023-02-13T06:10:00;12.67;;;6.27;;
2866;SDS011;1441;48.886;8.728;2023-02-13T06:12:26;10.90;;;5.30;;
2866;SDS011;1441;48.886;8.728;2023-02-13T06:14:51;8.40;;;5.40;;
2866;SDS011;1441;48.886;8.728;2023-02-13T06:17:18;7.60;;;5.07;;
2866;SDS011;1441;48.886;8.728;2023-02-13T06:19:44;5.93;;;5.10;;
2866;SDS011;1441;48.886;8.728;2023-02-13T06:22:09;12.93;;;6.73;;
2866;SDS011;1441;48.886;8.728;2023-02-13T06:24:35;8.70;;;5.63;;
2866;SDS011;1441;48.886;8.728;2023-02-13T06:27:00;8.87;;;5.97;;
2866;SDS011;1441;48.886;8.728;2023-02-13T06:29:26;9.03;;;5.27;;
2866;SDS011;1441;48.886;8.728;2023-02-13T06:31:51;8.30;;;5.27;;
2866;SDS011;1441;48.886;8.728;2023-02-13T06:34:17;7.50;;;5.70;;
2866;SDS011;1441;48.886;8.728;2023-02-13T06:36:42;10.17;;;6.60;;
2866;SDS011;1441;48.886;8.728;2023-02-13T06:39:08;11.77;;;7.07;;
2866;SDS011;1441;48.886;8.728;2023-02-13T06:41:35;12.23;;;7.00;;
2866;SDS011;1441;48.886;8.728;2023-02-13T06:44:00;12.93;;;6.93;;
2866;SDS011;1441;48.886;8.728;2023-02-13T06:46:26;10.00;;;6.20;;
2866;SDS011;1441;48.886;8.728;2023-02-13T06:48:51;12.13;;;6.80;;
2866;SDS011;1441;48.886;8.728;2023-02-13T06:51:17;11.63;;;7.33;;
2866;SDS011;1441;48.886;8.728;2023-02-13T06:53:42;13.17;;;7.80;;
2866;SDS011;1441;48.886;8.728;2023-02-13T06:56:08;13.03;;;7.30;;
2866;SDS011;1441;48.886;8.728;2023-02-13T06:58:35;10.57;;;7.33;;
2866;SDS011;1441;48.886;8.728;2023-02-13T07:01:02;12.87;;;7.97;;
2866;SDS011;1441;48.886;8.728;2023-02-13T07:03:28;11.60;;;8.27;;
2866;SDS011;1441;48.886;8.728;2023-02-13T07:05:53;15.43;;;9.43;;
2866;SDS011;1441;48.886;8.728;2023-02-13T07:08:20;13.20;;;9.10;;
2866;SDS011;1441;48.886;8.728;2023-02-13T07:10:45;16.90;;;9.33;;
2866;SDS011;1441;48.886;8.728;2023-02-13T07:13:11;15.93;;;8.80;;
2866;SDS011;1441;48.886;8.728;2023-02-13T07:15:37;14.50;;;9.10;;
2866;SDS011;1441;48.886;8.728;2023-02-13T07:18:03;16.60;;;10.40;;
2866;SDS011;1441;48.886;8.728;2023-02-13T07:20:29;15.23;;;9.80;;
2866;SDS011;1441;48.886;8.728;2023-02-13T07:22:59;15.07;;;9.67;;
2866;SDS011;1441;48.886;8.728;2023-02-13T07:25:29;15.93;;;9.50;;
2866;SDS011;1441;48.886;8.728;2023-02-13T07:27:59;13.43;;;8.73;;
2866;SDS011;1441;48.886;8.728;2023-02-13T07:30:30;14.43;;;8.40;;
2866;SDS011;1441;48.886;8.728;2023-02-13T07:32:58;12.40;;;7.80;;
2866;SDS011;1441;48.886;8.728;2023-02-13T07:35:25;11.50;;;7.20;;
2866;SDS011;1441;48.886;8.728;2023-02-13T07:37:51;12.90;;;7.77;;
2866;SDS011;1441;48.886;8.728;2023-02-13T07:40:18;11.30;;;7.70;;
2866;SDS011;1441;48.886;8.728;2023-02-13T07:42:44;9.30;;;6.50;;
2866;SDS011;1441;48.886;8.728;2023-02-13T07:45:09;10.27;;;6.90;;
2866;SDS011;1441;48.886;8.728;2023-02-13T07:47:35;12.67;;;7.53;;
2866;SDS011;1441;48.886;8.728;2023-02-13T07:50:01;13.40;;;6.77;;
2866;SDS011;1441;48.886;8.728;2023-02-13T07:52:29;10.30;;;6.70;;
2866;SDS011;1441;48.886;8.728;2023-02-13T07:54:56;8.23;;;5.73;;
2866;SDS011;1441;48.886;8.728;2023-02-13T07:57:22;9.57;;;6.53;;
2866;SDS011;1441;48.886;8.728;2023-02-13T07:59:47;11.37;;;6.93;;
2866;SDS011;1441;48.886;8.728;2023-02-13T08:02:13;9.90;;;6.50;;
2866;SDS011;1441;48.886;8.728;2023-02-13T08:04:40;11.00;;;7.20;;
2866;SDS011;1441;48.886;8.728;2023-02-13T08:07:13;11.00;;;6.70;;
2866;SDS011;1441;48.886;8.728;2023-02-13T08:09:40;12.00;;;7.33;;
2866;SDS011;1441;48.886;8.728;2023-02-13T08:12:24;9.30;;;6.47;;
2866;SDS011;1441;48.886;8.728;2023-02-13T08:14:50;13.10;;;6.10;;
2866;SDS011;1441;48.886;8.728;2023-02-13T08:17:16;8.57;;;5.93;;
2866;SDS011;1441;48.886;8.728;2023-02-13T08:19:42;11.30;;;6.60;;
2866;SDS011;1441;48.886;8.728;2023-02-13T08:22:08;8.40;;;5.90;;
2866;SDS011;1441;48.886;8.728;2023-02-13T08:24:33;8.63;;;6.30;;
2866;SDS011;1441;48.886;8.728;2023-02-13T08:26:59;9.70;;;5.57;;
2866;SDS011;1441;48.886;8.728;2023-02-13T08:29:24;9.00;;;6.33;;
2866;SDS011;1441;48.886;8.728;2023-02-13T08:31:50;7.47;;;5.57;;
2866;SDS011;1441;48.886;8.728;2023-02-13T08:34:15;7.40;;;5.33;;
2866;SDS011;1441;48.886;8.728;2023-02-13T08:36:41;8.17;;;5.40;;
2866;SDS011;1441;48.886;8.728;2023-02-13T08:39:08;8.40;;;5.90;;
2866;SDS011;1441;48.886;8.728;2023-02-13T08:41:34;6.37;;;5.20;;
2866;SDS011;1441;48.886;8.728;2023-02-13T08:43:59;6.73;;;5.40;;
2866;SDS011;1441;48.886;8.728;2023-02-13T08:46:25;8.13;;;5.70;;
2866;SDS011;1441;48.886;8.728;2023-02-13T08:48:50;5.47;;;4.47;;
2866;SDS011;1441;48.886;8.728;2023-02-13T08:51:16;8.87;;;5.70;;
2866;SDS011;1441;48.886;8.728;2023-02-13T08:53:42;8.00;;;5.37;;
2866;SDS011;1441;48.886;8.728;2023-02-13T08:56:07;6.93;;;4.70;;
2866;SDS011;1441;48.886;8.728;2023-02-13T08:58:33;6.63;;;4.60;;
2866;SDS011;1441;48.886;8.728;2023-02-13T09:00:59;9.60;;;5.70;;
2866;SDS011;1441;48.886;8.728;2023-02-13T09:03:28;7.73;;;5.20;;
2866;SDS011;1441;48.886;8.728;2023-02-13T09:05:57;7.23;;;4.27;;
2866;SDS011;1441;48.886;8.728;2023-02-13T09:08:23;8.20;;;5.43;;
2866;SDS011;1441;48.886;8.728;2023-02-13T09:10:53;7.50;;;4.73;;
2866;SDS011;1441;48.886;8.728;2023-02-13T09:13:21;9.20;;;5.37;;
2866;SDS011;1441;48.886;8.728;2023-02-13T09:15:47;7.40;;;4.60;;
2866;SDS011;1441;48.886;8.728;2023-02-13T09:18:12;7.20;;;5.10;;
2866;SDS011;1441;48.886;8.728;2023-02-13T09:20:38;5.53;;;4.47;;
2866;SDS011;1441;48.886;8.728;2023-02-13T09:23:03;6.67;;;4.40;;
2866;SDS011;1441;48.886;8.728;2023-02-13T09:25:29;7.47;;;4.70;;
2866;SDS011;1441;48.886;8.728;2023-02-13T09:27:55;7.37;;;5.07;;
2866;SDS011;1441;48.886;8.728;2023-02-13T09:30:20;6.60;;;4.60;;
2866;SDS011;1441;48.886;8.728;2023-02-13T09:32:49;5.70;;;4.20;;
2866;SDS011;1441;48.886;8.728;2023-02-13T09:35:16;7.07;;;4.90;;
2866;SDS011;1441;48.886;8.728;2023-02-13T09:37:42;6.73;;;5.20;;
2866;SDS011;1441;48.886;8.728;2023-02-13T09:40:20;4.57;;;4.17;;
2866;SDS011;1441;48.886;8.728;2023-02-13T09:43:03;5.80;;;4.70;;
2866;SDS011;1441;48.886;8.728;2023-02-13T09:45:37;7.50;;;4.80;;
2866;SDS011;1441;48.886;8.728;2023-02-13T09:48:03;11.13;;;5.90;;
2866;SDS011;1441;48.886;8.728;2023-02-13T09:50:30;9.83;;;4.63;;
2866;SDS011;1441;48.886;8.728;2023-02-13T09:52:59;6.40;;;4.83;;
2866;SDS011;1441;48.886;8.728;2023-02-13T09:58:32;6.40;;;5.20;;
2866;SDS011;1441;48.886;8.728;2023-02-13T10:01:20;10.73;;;4.80;;
2866;SDS011;1441;48.886;8.728;2023-02-13T10:04:01;5.37;;;4.60;;
2866;SDS011;1441;48.886;8.728;2023-02-13T10:07:01;6.47;;;4.60;;
2866;SDS011;1441;48.886;8.728;2023-02-13T10:09:50;6.73;;;4.10;;
2866;SDS011;1441;48.886;8.728;2023-02-13T10:18:09;9.17;;;6.43;;
2866;SDS011;1441;48.886;8.728;2023-02-13T10:20:55;7.80;;;6.00;;
2866;SDS011;1441;48.886;8.728;2023-02-13T10:23:32;5.73;;;4.30;;
2866;SDS011;1441;48.886;8.728;2023-02-13T10:26:11;4.77;;;3.90;;
2866;SDS011;1441;48.886;8.728;2023-02-13T10:28:54;7.30;;;4.47;;
2866;SDS011;1441;48.886;8.728;2023-02-13T10:31:47;5.83;;;4.70;;
2866;SDS011;1441;48.886;8.728;2023-02-13T10:34:16;6.67;;;5.03;;
2866;SDS011;1441;48.886;8.728;2023-02-13T10:36:46;6.80;;;4.83;;
2866;SDS011;1441;48.886;8.728;2023-02-13T10:39:17;5.83;;;4.73;;
2866;SDS011;1441;48.886;8.728;2023-02-13T10:42:05;5.60;;;4.80;;
2866;SDS011;1441;48.886;8.728;2023-02-13T10:45:09;7.47;;;5.20;;
2866;SDS011;1441;48.886;8.728;2023-02-13T10:50:30;6.80;;;5.40;;
2866;SDS011;1441;48.886;8.728;2023-02-13T10:55:52;7.10;;;4.90;;
2866;SDS011;1441;48.886;8.728;2023-02-13T11:04:27;8.10;;;5.37;;
2866;SDS011;1441;48.886;8.728;2023-02-13T11:06:55;5.90;;;5.30;;
2866;SDS011;1441;48.886;8.728;2023-02-13T11:09:25;9.43;;;5.33;;
2866;SDS011;1441;48.886;8.728;2023-02-13T11:11:51;7.63;;;6.07;;
2866;SDS011;1441;48.886;8.728;2023-02-13T11:14:23;8.23;;;5.87;;
2866;SDS011;1441;48.886;8.728;2023-02-13T11:16:52;6.13;;;5.17;;
2866;SDS011;1441;48.886;8.728;2023-02-13T11:19:45;5.97;;;5.10;;
2866;SDS011;1441;48.886;8.728;2023-02-13T11:22:25;8.67;;;5.63;;
2866;SDS011;1441;48.886;8.728;2023-02-13T11:24:52;6.47;;;5.00;;
2866;SDS011;1441;48.886;8.728;2023-02-13T11:27:32;7.20;;;5.50;;
2866;SDS011;1441;48.886;8.728;2023-02-13T11:30:02;6.67;;;5.30;;
2866;SDS011;1441;48.886;8.728;2023-02-13T11:32:31;6.47;;;5.20;;
2866;SDS011;1441;48.886;8.728;2023-02-13T11:35:16;6.40;;;4.47;;
2866;SDS011;1441;48.886;8.728;2023-02-13T11:40:35;6.13;;;4.97;;
2866;SDS011;1441;48.886;8.728;2023-02-13T11:43:01;5.33;;;4.67;;
2866;SDS011;1441;48.886;8.728;2023-02-13T11:45:30;5.80;;;5.10;;
2866;SDS011;1441;48.886;8.728;2023-02-13T11:47:56;4.43;;;4.03;;
2866;SDS011;1441;48.886;8.728;2023-02-13T11:50:26;5.93;;;4.43;;
2866;SDS011;1441;48.886;8.728;2023-02-13T11:53:03;5.03;;;4.47;;
2866;SDS011;1441;48.886;8.728;2023-02-13T11:55:36;5.00;;;4.57;;
2866;SDS011;1441;48.886;8.728;2023-02-13T11:58:18;4.43;;;4.00;;
2866;SDS011;1441;48.886;8.728;2023-02-13T12:00:49;5.27;;;4.77;;
2866;SDS011;1441;48.886;8.728;2023-02-13T12:03:34;4.93;;;4.37;;
2866;SDS011;1441;48.886;8.728;2023-02-13T12:06:01;6.00;;;4.10;;
2866;SDS011;1441;48.886;8.728;2023-02-13T12:08:34;7.53;;;3.80;;
2866;SDS011;1441;48.886;8.728;2023-02-13T12:11:01;4.73;;;3.70;;
2866;SDS011;1441;48.886;8.728;2023-02-13T12:13:34;3.20;;;3.00;;
2866;SDS011;1441;48.886;8.728;2023-02-13T12:16:02;5.73;;;3.93;;
2866;SDS011;1441;48.886;8.728;2023-02-13T12:18:40;3.63;;;3.23;;
2866;SDS011;1441;48.886;8.728;2023-02-13T12:23:46;3.37;;;3.07;;
2866;SDS011;1441;48.886;8.728;2023-02-13T12:26:31;3.73;;;3.00;;
2866;SDS011;1441;48.886;8.728;2023-02-13T12:29:15;7.00;;;3.07;;
2866;SDS011;1441;48.886;8.728;2023-02-13T12:32:08;3.70;;;3.40;;
2866;SDS011;1441;48.886;8.728;2023-02-13T12:34:43;6.53;;;4.30;;
2866;SDS011;1441;48.886;8.728;2023-02-13T12:37:31;8.93;;;5.00;;
2866;SDS011;1441;48.886;8.728;2023-02-13T12:40:23;4.70;;;3.90;;
2866;SDS011;1441;48.886;8.728;2023-02-13T12:45:59;7.43;;;5.33;;
2866;SDS011;1441;48.886;8.728;2023-02-13T12:59:28;4.90;;;4.43;;
2866;SDS011;1441;48.886;8.728;2023-02-13T13:18:55;5.10;;;4.60;;
2866;SDS011;1441;48.886;8.728;2023-02-13T13:24:33;9.80;;;5.77;;
2866;SDS011;1441;48.886;8.728;2023-02-13T13:27:01;7.53;;;5.90;;
2866;SDS011;1441;48.886;8.728;2023-02-13T13:29:31;7.70;;;5.90;;
2866;SDS011;1441;48.886;8.728;2023-02-13T13:32:06;10.53;;;6.57;;
2866;SDS011;1441;48.886;8.728;2023-02-13T13:34:35;7.07;;;5.93;;
2866;SDS011;1441;48.886;8.728;2023-02-13T13:45:08;9.30;;;6.93;;
2866;SDS011;1441;48.886;8.728;2023-02-13T13:47:56;9.97;;;6.57;;
2866;SDS011;1441;48.886;8.728;2023-02-13T13:50:29;9.90;;;7.30;;
2866;SDS011;1441;48.886;8.728;2023-02-13T13:53:16;10.73;;;7.10;;
2866;SDS011;1441;48.886;8.728;2023-02-13T13:58:37;7.57;;;6.77;;
2866;SDS011;1441;48.886;8.728;2023-02-13T14:03:39;7.47;;;6.77;;
2866;SDS011;1441;48.886;8.728;2023-02-13T14:06:08;9.83;;;6.33;;
2866;SDS011;1441;48.886;8.728;2023-02-13T14:11:03;9.70;;;7.80;;
2866;SDS011;1441;48.886;8.728;2023-02-13T14:13:37;9.93;;;7.60;;
2866;SDS011;1441;48.886;8.728;2023-02-13T14:16:08;12.13;;;8.57;;
2866;SDS011;1441;48.886;8.728;2023-02-13T14:18:35;9.20;;;7.57;;
2866;SDS011;1441;48.886;8.728;2023-02-13T14:21:03;18.90;;;8.27;;
2866;SDS011;1441;48.886;8.728;2023-02-13T14:23:36;12.90;;;8.30;;
2866;SDS011;1441;48.886;8.728;2023-02-13T14:26:27;11.00;;;7.73;;
2866;SDS011;1441;48.886;8.728;2023-02-13T14:32:21;12.35;;;8.38;;
2866;SDS011;1441;48.886;8.728;2023-02-13T14:34:41;11.83;;;7.70;;
2866;SDS011;1441;48.886;8.728;2023-02-13T14:37:18;11.33;;;7.67;;
2866;SDS011;1441;48.886;8.728;2023-02-13T14:42:42;12.20;;;8.50;;
2866;SDS011;1441;48.886;8.728;2023-02-13T14:45:15;8.00;;;7.00;;
2866;SDS011;1441;48.886;8.728;2023-02-13T14:47:48;9.53;;;6.83;;
2866;SDS011;1441;48.886;8.728;2023-02-13T14:50:32;9.27;;;6.80;;
2866;SDS011;1441;48.886;8.728;2023-02-13T14:53:13;13.40;;;10.53;;
2866;SDS011;1441;48.886;8.728;2023-02-13T14:55:57;10.30;;;8.13;;
2866;SDS011;1441;48.886;8.728;2023-02-13T14:58:30;7.47;;;6.70;;
2866;SDS011;1441;48.886;8.728;2023-02-13T15:01:07;8.80;;;7.00;;
2866;SDS011;1441;48.886;8.728;2023-02-13T15:03:46;7.67;;;6.70;;
2866;SDS011;1441;48.886;8.728;2023-02-13T15:06:21;13.17;;;6.20;;
2866;SDS011;1441;48.886;8.728;2023-02-13T15:08:58;10.30;;;7.40;;
2866;SDS011;1441;48.886;8.728;2023-02-13T15:11:33;9.43;;;7.43;;
2866;SDS011;1441;48.886;8.728;2023-02-13T15:14:20;11.60;;;7.47;;
2866;SDS011;1441;48.886;8.728;2023-02-13T15:16:53;11.20;;;6.93;;
2866;SDS011;1441;48.886;8.728;2023-02-13T15:19:23;9.90;;;5.97;;
2866;SDS011;1441;48.886;8.728;2023-02-13T15:21:53;7.50;;;6.30;;
2866;SDS011;1441;48.886;8.728;2023-02-13T15:24:22;12.83;;;7.07;;
2866;SDS011;1441;48.886;8.728;2023-02-13T15:26:52;7.30;;;6.47;;
2866;SDS011;1441;48.886;8.728;2023-02-13T15:29:26;7.97;;;6.50;;
2866;SDS011;1441;48.886;8.728;2023-02-13T15:31:52;7.87;;;6.43;;
2866;SDS011;1441;48.886;8.728;2023-02-13T15:34:22;6.60;;;5.97;;
2866;SDS011;1441;48.886;8.728;2023-02-13T15:36:48;7.50;;;6.57;;
2866;SDS011;1441;48.886;8.728;2023-02-13T15:39:24;10.53;;;6.93;;
2866;SDS011;1441;48.886;8.728;2023-02-13T15:41:52;7.53;;;6.47;;
2866;SDS011;1441;48.886;8.728;2023-02-13T15:44:27;7.87;;;6.27;;
2866;SDS011;1441;48.886;8.728;2023-02-13T15:46:57;11.07;;;7.60;;
2866;SDS011;1441;48.886;8.728;2023-02-13T15:49:32;13.10;;;7.90;;
2866;SDS011;1441;48.886;8.728;2023-02-13T15:52:13;10.53;;;6.97;;
2866;SDS011;1441;48.886;8.728;2023-02-13T15:54:49;10.47;;;6.87;;
2866;SDS011;1441;48.886;8.728;2023-02-13T15:57:19;16.13;;;6.80;;
2866;SDS011;1441;48.886;8.728;2023-02-13T15:59:45;9.43;;;7.20;;
2866;SDS011;1441;48.886;8.728;2023-02-13T16:02:29;10.83;;;7.60;;
2866;SDS011;1441;48.886;8.728;2023-02-13T16:05:03;8.23;;;7.30;;
2866;SDS011;1441;48.886;8.728;2023-02-13T16:07:30;9.87;;;6.90;;
2866;SDS011;1441;48.886;8.728;2023-02-13T16:12:51;9.40;;;7.10;;
2866;SDS011;1441;48.886;8.728;2023-02-13T16:15:18;9.50;;;7.00;;
2866;SDS011;1441;48.886;8.728;2023-02-13T16:17:45;9.73;;;7.30;;
2866;SDS011;1441;48.886;8.728;2023-02-13T16:30:20;15.60;;;7.00;;
2866;SDS011;1441;48.886;8.728;2023-02-13T16:32:47;14.03;;;7.40;;
2866;SDS011;1441;48.886;8.728;2023-02-13T16:35:26;9.70;;;6.97;;
2866;SDS011;1441;48.886;8.728;2023-02-13T16:37:59;12.90;;;6.67;;
2866;SDS011;1441;48.886;8.728;2023-02-13T16:42:51;9.80;;;7.73;;
2866;SDS011;1441;48.886;8.728;2023-02-13T16:45:21;10.27;;;8.03;;
2866;SDS011;1441;48.886;8.728;2023-02-13T16:47:47;9.87;;;6.53;;
2866;SDS011;1441;48.886;8.728;2023-02-13T16:50:22;10.57;;;6.53;;
2866;SDS011;1441;48.886;8.728;2023-02-13T16:52:48;9.30;;;6.40;;
2866;SDS011;1441;48.886;8.728;2023-02-13T16:55:13;8.37;;;6.50;;
2866;SDS011;1441;48.886;8.728;2023-02-13T16:57:40;9.93;;;6.70;;
2866;SDS011;1441;48.886;8.728;2023-02-13T17:02:40;11.93;;;6.90;;
2866;SDS011;1441;48.886;8.728;2023-02-13T17:07:38;11.33;;;7.03;;
2866;SDS011;1441;48.886;8.728;2023-02-13T17:10:19;10.30;;;7.70;;
2866;SDS011;1441;48.886;8.728;2023-02-13T17:12:51;11.83;;;6.43;;
2866;SDS011;1441;48.886;8.728;2023-02-13T17:15:19;8.80;;;7.20;;
2866;SDS011;1441;48.886;8.728;2023-02-13T17:17:47;10.23;;;7.97;;
2866;SDS011;1441;48.886;8.728;2023-02-13T17:20:15;11.60;;;7.77;;
2866;SDS011;1441;48.886;8.728;2023-02-13T17:22:47;10.60;;;7.53;;
2866;SDS011;1441;48.886;8.728;2023-02-13T17:27:43;10.30;;;7.20;;
2866;SDS011;1441;48.886;8.728;2023-02-13T17:30:11;10.50;;;7.50;;
2866;SDS011;1441;48.886;8.728;2023-02-13T17:32:41;10.43;;;7.27;;
2866;SDS011;1441;48.886;8.728;2023-02-13T17:35:11;12.10;;;7.83;;
2866;SDS011;1441;48.886;8.728;2023-02-13T17:37:38;12.30;;;7.67;;
2866;SDS011;1441;48.886;8.728;2023-02-13T17:40:05;12.00;;;8.27;;
2866;SDS011;1441;48.886;8.728;2023-02-13T17:42:33;14.47;;;8.50;;
2866;SDS011;1441;48.886;8.728;2023-02-13T17:45:00;13.33;;;8.40;;
2866;SDS011;1441;48.886;8.728;2023-02-13T17:47:26;10.07;;;8.00;;
2866;SDS011;1441;48.886;8.728;2023-02-13T17:49:51;16.57;;;8.27;;
2866;SDS011;1441;48.886;8.728;2023-02-13T17:52:18;12.83;;;8.70;;